createdAt,value
2023-03-06T00:01:05.078Z,95098.25
2023-03-06T00:02:06.727Z,95099.16
2023-03-06T00:03:08.441Z,95098.38
2023-03-06T00:04:10.266Z,95096.31
2023-03-06T00:05:13.499Z,95095.31
2023-03-06T00:06:15.193Z,95085.94
2023-03-06T00:07:16.924Z,95088.34
2023-03-06T00:08:18.568Z,95093.53
2023-03-06T00:09:20.224Z,95087.06
2023-03-06T00:10:24.827Z,95083.78
2023-03-06T00:11:26.367Z,95083.56
2023-03-06T00:12:28.071Z,95093.47
2023-03-06T00:13:31.172Z,95079.78
2023-03-06T00:14:32.764Z,95078.34
2023-03-06T00:15:34.514Z,95076.75
2023-03-06T00:16:36.196Z,95074.06
2023-03-06T00:17:38.125Z,95079.78
2023-03-06T00:18:39.807Z,95078.69
2023-03-06T00:19:41.499Z,95074.47
2023-03-06T00:20:43.997Z,95070.31
2023-03-06T00:21:45.641Z,95073.34
2023-03-06T00:22:47.649Z,95076.84
2023-03-06T00:23:49.270Z,95070.72
2023-03-06T00:24:53.740Z,95076.31
2023-03-06T00:25:55.482Z,95066.94
2023-03-06T00:26:57.144Z,95071.09
2023-03-06T00:27:58.784Z,95064.66
2023-03-06T00:29:00.499Z,95058.84
2023-03-06T00:30:02.250Z,95061.44
2023-03-06T00:31:04.024Z,95060.38
2023-03-06T00:32:06.102Z,95061.41
2023-03-06T00:33:08.842Z,95056.47
2023-03-06T00:34:10.496Z,95055.91
2023-03-06T00:35:12.869Z,95061.84
2023-03-06T00:36:14.534Z,95061.72
2023-03-06T00:37:16.317Z,95062.25
2023-03-06T00:38:18.054Z,95051.16
2023-03-06T00:39:19.737Z,95059.03
2023-03-06T00:40:21.586Z,95054.50
2023-03-06T00:41:23.250Z,95046.44
2023-03-06T00:42:25.269Z,95040.75
2023-03-06T00:43:26.880Z,95045.06
2023-03-06T00:44:28.607Z,95041.41
2023-03-06T00:45:30.409Z,95047.06
2023-03-06T00:46:32.185Z,95043.13
2023-03-06T00:47:34.045Z,95036.09
2023-03-06T00:48:35.839Z,95037.72
2023-03-06T00:49:37.517Z,95033.97
2023-03-06T00:50:39.129Z,95039.13
2023-03-06T00:51:40.761Z,95028.69
2023-03-06T00:52:42.502Z,95038.31
2023-03-06T00:53:44.125Z,95035.47
2023-03-06T00:54:45.703Z,95032.50
2023-03-06T00:55:47.373Z,95034.66
2023-03-06T00:56:48.969Z,95036.06
2023-03-06T00:57:50.532Z,95027.81
2023-03-06T00:58:52.193Z,95034.00
2023-03-06T00:59:53.831Z,95028.63
2023-03-06T01:00:55.777Z,95025.34
2023-03-06T01:01:57.917Z,95024.25
2023-03-06T01:03:00.417Z,95019.69
2023-03-06T01:04:02.140Z,95018.34
2023-03-06T01:05:04.493Z,95023.25
2023-03-06T01:06:06.348Z,95020.25
2023-03-06T01:07:10.491Z,95012.69
2023-03-06T01:08:12.122Z,95006.59
2023-03-06T01:09:13.687Z,95010.38
2023-03-06T01:10:15.398Z,95005.56
2023-03-06T01:11:17.006Z,95011.22
2023-03-06T01:12:20.500Z,95008.53
2023-03-06T01:13:23.822Z,94999.66
2023-03-06T01:14:26.999Z,94996.34
2023-03-06T01:15:28.663Z,94990.75
2023-03-06T01:16:30.378Z,95000.41
2023-03-06T01:17:32.097Z,94993.16
2023-03-06T01:18:33.696Z,94991.69
2023-03-06T01:19:36.422Z,94979.69
2023-03-06T01:20:38.060Z,94985.28
2023-03-06T01:21:39.845Z,94967.69
2023-03-06T01:22:41.967Z,94981.59
2023-03-06T01:23:43.538Z,94981.06
2023-03-06T01:24:45.127Z,94967.38
2023-03-06T01:25:46.823Z,94971.19
2023-03-06T01:26:48.487Z,94970.06
2023-03-06T01:27:50.125Z,94970.44
2023-03-06T01:28:51.738Z,94971.31
2023-03-06T01:29:53.374Z,94974.47
2023-03-06T01:30:55.041Z,94964.59
2023-03-06T01:31:56.726Z,94964.31
2023-03-06T01:32:59.222Z,94963.53
2023-03-06T01:34:00.873Z,94957.56
2023-03-06T01:35:03.858Z,94955.75
2023-03-06T01:36:07.571Z,94962.31
2023-03-06T01:37:09.200Z,94955.38
2023-03-06T01:38:10.997Z,94943.63
2023-03-06T01:39:12.615Z,94951.59
2023-03-06T01:40:14.408Z,94947.38
2023-03-06T01:41:16.112Z,94939.16
2023-03-06T01:42:17.662Z,94956.53
2023-03-06T01:43:28.299Z,94950.34
2023-03-06T01:44:30.049Z,94951.16
2023-03-06T01:45:31.601Z,94947.91
2023-03-06T01:46:41.846Z,94949.56
2023-03-06T01:47:44.783Z,94953.03
2023-03-06T01:48:47.359Z,94941.31
2023-03-06T01:49:49.020Z,94947.22
2023-03-06T01:50:51.668Z,94946.13
2023-03-06T01:51:55.993Z,94943.72
2023-03-06T01:52:59.464Z,94938.06
2023-03-06T01:54:02.600Z,94932.97
2023-03-06T01:55:14.011Z,94933.19
2023-03-06T01:56:16.067Z,94938.00
2023-03-06T01:57:20.907Z,94934.47
2023-03-06T01:58:22.649Z,94934.50
2023-03-06T01:59:26.784Z,94924.84
2023-03-06T02:00:29.131Z,94923.84
2023-03-06T02:01:32.171Z,94928.69
2023-03-06T02:02:34.461Z,94921.72
2023-03-06T02:03:36.609Z,94924.97
2023-03-06T02:04:45.404Z,94929.53
2023-03-06T02:05:48.422Z,94929.84
2023-03-06T02:06:50.104Z,94922.06
2023-03-06T02:07:52.346Z,94923.38
2023-03-06T02:08:54.456Z,94910.22
2023-03-06T02:09:56.259Z,94913.19
2023-03-06T02:11:07.224Z,94916.41
2023-03-06T02:12:12.959Z,94913.25
2023-03-06T02:13:15.107Z,94911.94
2023-03-06T02:14:18.010Z,94917.66
2023-03-06T02:15:23.095Z,94916.56
2023-03-06T02:16:27.524Z,94913.38
2023-03-06T02:17:30.296Z,94909.31
2023-03-06T02:18:35.739Z,94910.34
2023-03-06T02:19:37.879Z,94899.31
2023-03-06T02:20:45.278Z,94907.53
2023-03-06T02:21:47.139Z,94912.63
2023-03-06T02:22:58.784Z,94905.94
2023-03-06T02:24:23.394Z,94905.94
2023-03-06T02:25:35.165Z,94908.75
2023-03-06T02:26:38.645Z,94902.84
2023-03-06T02:27:41.977Z,94902.31
2023-03-06T02:28:44.254Z,94903.72
2023-03-06T02:29:47.006Z,94905.59
2023-03-06T02:30:55.521Z,94898.03
2023-03-06T02:31:57.717Z,94899.63
2023-03-06T02:33:00.119Z,94901.25
2023-03-06T02:34:08.393Z,94896.47
2023-03-06T02:35:19.460Z,94899.75
2023-03-06T02:36:21.607Z,94888.16
2023-03-06T02:37:24.942Z,94891.56
2023-03-06T02:38:48.454Z,94884.56
2023-03-06T02:39:54.990Z,94888.25
2023-03-06T02:40:59.119Z,94879.91
2023-03-06T02:42:05.152Z,94885.00
2023-03-06T02:43:07.108Z,94886.31
2023-03-06T02:44:09.087Z,94883.63
2023-03-06T02:45:12.497Z,94881.50
2023-03-06T02:46:16.079Z,94886.09
2023-03-06T02:47:17.827Z,94885.53
2023-03-06T02:48:20.345Z,94877.50
2023-03-06T02:49:22.173Z,94880.25
2023-03-06T02:50:24.762Z,94876.78
2023-03-06T02:51:26.288Z,94872.19
2023-03-06T02:52:27.973Z,94873.84
2023-03-06T02:53:31.245Z,94876.25
2023-03-06T02:54:34.928Z,94879.47
2023-03-06T02:55:37.338Z,94884.28
2023-03-06T02:56:39.357Z,94880.25
2023-03-06T02:57:42.203Z,94871.91
2023-03-06T02:58:44.170Z,94868.44
2023-03-06T02:59:46.075Z,94859.56
2023-03-06T03:00:49.462Z,94864.13
2023-03-06T03:01:51.642Z,94866.03
2023-03-06T03:02:54.276Z,94863.84
2023-03-06T03:03:56.284Z,94862.19
2023-03-06T03:04:58.327Z,94863.50
2023-03-06T03:06:01.283Z,94858.28
2023-03-06T03:07:08.597Z,94864.97
2023-03-06T03:08:11.353Z,94870.59
2023-03-06T03:09:13.217Z,94855.47
2023-03-06T03:10:15.523Z,94858.16
2023-03-06T03:11:17.414Z,94856.53
2023-03-06T03:12:19.919Z,94861.63
2023-03-06T03:13:22.084Z,94846.59
2023-03-06T03:14:24.882Z,94850.59
2023-03-06T03:15:26.979Z,94851.59
2023-03-06T03:16:29.832Z,94852.72
2023-03-06T03:17:36.408Z,94847.91
2023-03-06T03:18:38.151Z,94851.97
2023-03-06T03:19:40.017Z,94851.41
2023-03-06T03:20:43.486Z,94844.41
2023-03-06T03:21:45.959Z,94850.06
2023-03-06T03:22:49.210Z,94861.88
2023-03-06T03:23:51.246Z,94849.78
2023-03-06T03:24:53.099Z,94854.94
2023-03-06T03:25:57.337Z,94849.78
2023-03-06T03:26:59.220Z,94846.59
2023-03-06T03:28:01.577Z,94851.03
2023-03-06T03:29:05.226Z,94847.25
2023-03-06T03:30:08.240Z,94836.41
2023-03-06T03:31:11.777Z,94843.38
2023-03-06T03:32:13.928Z,94833.16
2023-03-06T03:33:19.874Z,94844.28
2023-03-06T03:34:21.685Z,94847.47
2023-03-06T03:35:23.806Z,94838.91
2023-03-06T03:36:27.940Z,94846.06
2023-03-06T03:37:30.896Z,94845.22
2023-03-06T03:38:34.324Z,94849.69
2023-03-06T03:39:36.646Z,94844.25
2023-03-06T03:40:39.462Z,94843.03
2023-03-06T03:41:41.975Z,94845.28
2023-03-06T03:42:46.252Z,94841.59
2023-03-06T03:43:48.793Z,94844.56
2023-03-06T03:44:50.715Z,94844.28
2023-03-06T03:45:56.156Z,94836.50
2023-03-06T03:46:58.753Z,94832.19
2023-03-06T03:48:01.105Z,94828.19
2023-03-06T03:49:04.266Z,94829.28
2023-03-06T03:50:08.013Z,94831.97
2023-03-06T03:51:13.077Z,94830.97
2023-03-06T03:52:19.854Z,94834.88
2023-03-06T03:53:22.100Z,94836.78
2023-03-06T03:54:24.089Z,94827.63
2023-03-06T03:55:31.215Z,94828.13
2023-03-06T03:56:34.208Z,94827.63
2023-03-06T03:57:43.313Z,94831.03
2023-03-06T03:58:46.321Z,94827.97
2023-03-06T03:59:48.083Z,94831.94
2023-03-06T04:01:00.885Z,94824.09
2023-03-06T04:02:05.011Z,94818.06
2023-03-06T04:03:13.667Z,94821.97
2023-03-06T04:04:18.986Z,94817.38
2023-03-06T04:05:21.242Z,94817.88
2023-03-06T04:06:24.471Z,94827.06
2023-03-06T04:07:27.624Z,94817.97
2023-03-06T04:08:29.860Z,94821.25
2023-03-06T04:09:32.119Z,94823.72
2023-03-06T04:10:34.454Z,94821.72
2023-03-06T04:11:39.033Z,94819.31
2023-03-06T04:12:41.276Z,94817.28
2023-03-06T04:13:45.558Z,94822.66
2023-03-06T04:14:47.619Z,94826.25
2023-03-06T04:15:52.657Z,94826.16
2023-03-06T04:16:56.354Z,94818.88
2023-03-06T04:17:58.188Z,94817.88
2023-03-06T04:19:03.935Z,94815.78
2023-03-06T04:20:07.733Z,94816.63
2023-03-06T04:21:09.919Z,94821.22
2023-03-06T04:22:12.052Z,94816.44
2023-03-06T04:23:15.734Z,94818.53
2023-03-06T04:24:17.985Z,94814.75
2023-03-06T04:25:20.653Z,94816.44
2023-03-06T04:26:22.501Z,94801.38
2023-03-06T04:27:25.014Z,94815.25
2023-03-06T04:28:29.436Z,94811.78
2023-03-06T04:29:33.590Z,94807.31
2023-03-06T04:30:36.749Z,94805.50
2023-03-06T04:31:38.861Z,94812.22
2023-03-06T04:32:41.013Z,94809.22
2023-03-06T04:33:43.966Z,94807.94
2023-03-06T04:34:46.037Z,94813.59
2023-03-06T04:35:48.119Z,94807.69
2023-03-06T04:36:55.280Z,94804.16
2023-03-06T04:37:58.108Z,94799.63
2023-03-06T04:39:03.293Z,94806.63
2023-03-06T04:40:09.883Z,94805.63
2023-03-06T04:41:12.778Z,94802.13
2023-03-06T04:42:15.034Z,94804.31
2023-03-06T04:43:17.521Z,94801.63
2023-03-06T04:44:19.777Z,94806.09
2023-03-06T04:45:22.452Z,94801.41
2023-03-06T04:46:25.708Z,94798.81
2023-03-06T04:47:27.887Z,94801.09
2023-03-06T04:48:30.115Z,94804.03
2023-03-06T04:49:32.383Z,94796.25
2023-03-06T04:50:34.747Z,94795.66
2023-03-06T04:51:37.087Z,94799.63
2023-03-06T04:52:40.884Z,94783.31
2023-03-06T04:53:43.047Z,94781.19
2023-03-06T04:54:46.547Z,94787.19
2023-03-06T04:55:48.897Z,94785.81
2023-03-06T04:56:50.843Z,94781.88
2023-03-06T04:57:53.510Z,94782.78
2023-03-06T04:58:55.891Z,94780.66
2023-03-06T04:59:59.505Z,94780.50
2023-03-06T05:01:01.376Z,94779.31
2023-03-06T05:02:03.156Z,94783.88
2023-03-06T05:03:06.480Z,94780.09
2023-03-06T05:04:08.417Z,94786.19
2023-03-06T05:05:13.169Z,94779.69
2023-03-06T05:06:15.471Z,94780.28
2023-03-06T05:07:17.941Z,94775.13
2023-03-06T05:08:21.237Z,94776.09
2023-03-06T05:09:23.683Z,94773.78
2023-03-06T05:10:25.664Z,94768.75
2023-03-06T05:11:27.900Z,94775.50
2023-03-06T05:12:30.016Z,94777.09
2023-03-06T05:13:31.796Z,94772.44
2023-03-06T05:14:34.491Z,94773.31
2023-03-06T05:15:36.950Z,94771.22
2023-03-06T05:16:40.225Z,94775.13
2023-03-06T05:17:42.697Z,94776.03
2023-03-06T05:18:44.988Z,94776.09
2023-03-06T05:19:46.909Z,94778.38
2023-03-06T05:20:49.149Z,94771.78
2023-03-06T05:21:51.758Z,94772.53
2023-03-06T05:22:54.178Z,94771.44
2023-03-06T05:23:58.451Z,94767.94
2023-03-06T05:25:00.676Z,94766.50
2023-03-06T05:26:07.750Z,94766.75
2023-03-06T05:27:09.798Z,94773.22
2023-03-06T05:28:12.336Z,94767.25
2023-03-06T05:29:14.906Z,94763.25
2023-03-06T05:30:16.974Z,94764.47
2023-03-06T05:31:19.413Z,94763.28
2023-03-06T05:32:22.143Z,94757.09
2023-03-06T05:33:24.009Z,94762.88
2023-03-06T05:34:26.218Z,94763.09
2023-03-06T05:35:29.183Z,94763.50
2023-03-06T05:36:31.048Z,94753.13
2023-03-06T05:37:33.212Z,94765.31
2023-03-06T05:38:36.709Z,94757.78
2023-03-06T05:39:38.934Z,94758.91
2023-03-06T05:40:41.939Z,94754.22
2023-03-06T05:41:45.082Z,94756.69
2023-03-06T05:42:46.974Z,94760.34
2023-03-06T05:43:48.787Z,94748.88
2023-03-06T05:44:51.147Z,94758.44
2023-03-06T05:46:04.470Z,94757.66
2023-03-06T05:47:06.377Z,94758.00
2023-03-06T05:48:08.521Z,94752.91
2023-03-06T05:49:11.489Z,94755.00
2023-03-06T05:50:14.139Z,94757.47
2023-03-06T05:51:15.871Z,94759.88
2023-03-06T05:52:18.331Z,94757.88
2023-03-06T05:53:21.303Z,94757.78
2023-03-06T05:54:24.837Z,94757.41
2023-03-06T05:55:27.107Z,94758.69
2023-03-06T05:56:30.281Z,94764.09
2023-03-06T05:57:32.284Z,94762.91
2023-03-06T05:58:34.547Z,94765.88
2023-03-06T05:59:36.862Z,94765.41
2023-03-06T06:00:38.929Z,94764.50
2023-03-06T06:01:41.448Z,94768.91
2023-03-06T06:02:44.074Z,94766.00
2023-03-06T06:03:46.958Z,94762.22
2023-03-06T06:04:49.704Z,94762.28
2023-03-06T06:05:51.960Z,94764.00
2023-03-06T06:06:59.817Z,94765.09
2023-03-06T06:08:01.748Z,94771.50
2023-03-06T06:09:03.896Z,94768.06
2023-03-06T06:10:07.487Z,94767.38
2023-03-06T06:11:10.993Z,94759.13
2023-03-06T06:12:14.579Z,94766.75
2023-03-06T06:13:16.450Z,94766.88
2023-03-06T06:14:18.312Z,94768.97
2023-03-06T06:15:20.540Z,94767.38
2023-03-06T06:16:22.633Z,94766.06
2023-03-06T06:17:24.697Z,94765.19
2023-03-06T06:18:26.456Z,94761.38
2023-03-06T06:19:31.953Z,94767.56
2023-03-06T06:20:33.665Z,94765.66
2023-03-06T06:21:36.529Z,94768.19
2023-03-06T06:22:38.763Z,94772.47
2023-03-06T06:23:41.418Z,94773.56
2023-03-06T06:24:43.001Z,94774.38
2023-03-06T06:25:45.157Z,94764.06
2023-03-06T06:26:47.315Z,94769.47
2023-03-06T06:27:49.208Z,94768.66
2023-03-06T06:28:51.341Z,94771.97
2023-03-06T06:29:54.232Z,94773.06
2023-03-06T06:30:56.602Z,94772.53
2023-03-06T06:31:59.396Z,94775.75
2023-03-06T06:33:02.056Z,94773.56
2023-03-06T06:34:04.971Z,94778.16
2023-03-06T06:35:09.694Z,94780.84
2023-03-06T06:36:21.691Z,94777.94
2023-03-06T06:37:25.164Z,94778.66
2023-03-06T06:38:27.115Z,94778.94
2023-03-06T06:39:30.152Z,94774.03
2023-03-06T06:40:32.254Z,94777.25
2023-03-06T06:42:56.895Z,94774.19
2023-03-06T06:43:59.829Z,94772.97
2023-03-06T06:45:01.905Z,94773.69
2023-03-06T06:46:29.748Z,94779.56
2023-03-06T06:47:27.603Z,94776.59
2023-03-06T06:48:29.697Z,94781.34
2023-03-06T06:49:32.005Z,94770.81
2023-03-06T06:50:34.105Z,94773.59
2023-03-06T06:51:37.882Z,94770.63
2023-03-06T06:52:40.035Z,94774.19
2023-03-06T06:53:42.160Z,94770.47
2023-03-06T06:54:44.318Z,94776.38
2023-03-06T06:55:46.491Z,94769.59
2023-03-06T06:56:48.735Z,94771.38
2023-03-06T06:57:50.536Z,94770.63
2023-03-06T06:58:55.902Z,94772.88
2023-03-06T06:59:59.643Z,94779.28
2023-03-06T07:01:09.496Z,94774.00
2023-03-06T07:02:16.316Z,94771.09
2023-03-06T07:03:18.517Z,94774.78
2023-03-06T07:04:20.898Z,94779.56
2023-03-06T07:05:23.001Z,94773.78
2023-03-06T07:06:25.394Z,94778.78
2023-03-06T07:07:31.463Z,94774.38
2023-03-06T07:08:34.071Z,94773.16
2023-03-06T07:09:35.961Z,94780.47
2023-03-06T07:10:39.620Z,94780.94
2023-03-06T07:11:43.208Z,94782.78
2023-03-06T07:12:45.177Z,94779.16
2023-03-06T07:13:50.992Z,94780.34
2023-03-06T07:14:53.422Z,94782.56
2023-03-06T07:15:55.239Z,94787.31
2023-03-06T07:16:57.306Z,94787.75
2023-03-06T07:18:00.965Z,94782.44
2023-03-06T07:19:03.276Z,94786.97
2023-03-06T07:20:07.598Z,94782.44
2023-03-06T07:21:09.917Z,94783.94
2023-03-06T07:22:12.574Z,94792.31
2023-03-06T07:23:14.411Z,94787.03
2023-03-06T07:24:16.557Z,94785.72
2023-03-06T07:25:19.006Z,94790.22
2023-03-06T07:26:21.178Z,94789.81
2023-03-06T07:27:24.031Z,94794.53
2023-03-06T07:28:26.664Z,94792.00
2023-03-06T07:29:28.885Z,94788.63
2023-03-06T07:30:31.210Z,94790.94
2023-03-06T07:31:34.074Z,94788.63
2023-03-06T07:32:36.445Z,94785.06
2023-03-06T07:33:39.963Z,94786.63
2023-03-06T07:34:43.457Z,94790.44
2023-03-06T07:35:46.065Z,94794.72
2023-03-06T07:36:48.273Z,94797.53
2023-03-06T07:37:51.286Z,94784.44
2023-03-06T07:38:54.133Z,94791.44
2023-03-06T07:39:56.109Z,94786.06
2023-03-06T07:40:58.678Z,94797.03
2023-03-06T07:42:00.375Z,94794.72
2023-03-06T07:43:18.272Z,94800.72
2023-03-06T07:44:28.802Z,94791.09
2023-03-06T07:45:30.721Z,94794.13
2023-03-06T07:46:32.548Z,94793.63
2023-03-06T07:47:34.785Z,94793.31
2023-03-06T07:48:38.840Z,94805.13
2023-03-06T07:49:40.655Z,94794.00
2023-03-06T07:50:43.035Z,94798.53
2023-03-06T07:51:45.241Z,94801.31
2023-03-06T07:52:48.552Z,94804.38
2023-03-06T07:53:50.559Z,94803.50
2023-03-06T07:54:53.019Z,94798.94
2023-03-06T07:55:54.849Z,94800.25
2023-03-06T07:56:57.421Z,94789.13
2023-03-06T07:57:59.581Z,94791.53
2023-03-06T07:59:01.836Z,94795.63
2023-03-06T08:00:11.313Z,94798.53
2023-03-06T08:01:20.876Z,94807.13
2023-03-06T08:02:22.604Z,94798.44
2023-03-06T08:03:24.867Z,94798.56
2023-03-06T08:04:28.985Z,94802.81
2023-03-06T08:05:31.328Z,94806.63
2023-03-06T08:06:33.576Z,94808.19
2023-03-06T08:07:35.990Z,94805.44
2023-03-06T08:08:41.214Z,94803.63
2023-03-06T08:09:43.716Z,94804.03
2023-03-06T08:10:49.479Z,94816.09
2023-03-06T08:11:51.317Z,94807.63
2023-03-06T08:12:54.036Z,94811.22
2023-03-06T08:13:57.636Z,94812.00
2023-03-06T08:14:59.589Z,94814.31
2023-03-06T08:16:02.270Z,94815.13
2023-03-06T08:17:04.489Z,94815.69
2023-03-06T08:18:06.662Z,94818.50
2023-03-06T08:19:08.757Z,94819.00
2023-03-06T08:20:11.349Z,94821.19
2023-03-06T08:21:21.290Z,94825.69
2023-03-06T08:22:25.022Z,94819.88
2023-03-06T08:23:27.496Z,94822.09
2023-03-06T08:24:29.632Z,94815.81
2023-03-06T08:25:32.090Z,94827.09
2023-03-06T08:26:34.305Z,94823.72
2023-03-06T08:27:36.479Z,94828.69
2023-03-06T08:28:40.323Z,94832.47
2023-03-06T08:29:42.066Z,94820.31
2023-03-06T08:30:44.256Z,94832.47
2023-03-06T08:31:47.603Z,94821.41
2023-03-06T08:32:49.756Z,94835.38
2023-03-06T08:33:52.630Z,94830.59
2023-03-06T08:34:54.790Z,94832.88
2023-03-06T08:35:57.515Z,94839.47
2023-03-06T08:36:59.617Z,94833.50
2023-03-06T08:38:01.352Z,94841.56
2023-03-06T08:39:05.102Z,94839.66
2023-03-06T08:40:09.548Z,94833.28
2023-03-06T08:41:11.642Z,94840.06
2023-03-06T08:42:14.035Z,94844.16
2023-03-06T08:43:16.257Z,94844.03
2023-03-06T08:44:19.026Z,94836.47
2023-03-06T08:45:21.152Z,94836.69
2023-03-06T08:46:25.530Z,94836.47
2023-03-06T08:47:27.764Z,94836.69
2023-03-06T08:48:30.013Z,94834.28
2023-03-06T08:49:31.807Z,94834.50
2023-03-06T08:50:33.966Z,94835.78
2023-03-06T08:51:36.330Z,94840.53
2023-03-06T08:52:38.964Z,94845.63
2023-03-06T08:53:43.593Z,94841.25
2023-03-06T08:54:46.728Z,94842.34
2023-03-06T08:55:49.092Z,94844.63
2023-03-06T08:56:51.332Z,94846.06
2023-03-06T08:57:53.393Z,94840.53
2023-03-06T08:58:57.087Z,94844.03
2023-03-06T08:59:59.705Z,94840.84
2023-03-06T09:01:04.024Z,94840.75
2023-03-06T09:02:08.001Z,94841.84
2023-03-06T09:03:11.182Z,94845.34
2023-03-06T09:04:13.315Z,94847.03
2023-03-06T09:05:15.494Z,94846.63
2023-03-06T09:06:17.416Z,94846.22
2023-03-06T09:07:19.689Z,94840.50
2023-03-06T09:08:21.576Z,94842.00
2023-03-06T09:09:24.204Z,94846.47
2023-03-06T09:10:28.425Z,94847.34
2023-03-06T09:11:31.003Z,94846.84
2023-03-06T09:12:47.342Z,94846.69
2023-03-06T09:13:51.757Z,94839.66
2023-03-06T09:14:53.606Z,94837.97
2023-03-06T09:15:55.769Z,94843.59
2023-03-06T09:16:57.956Z,94844.41
2023-03-06T09:18:00.873Z,94846.34
2023-03-06T09:19:03.207Z,94854.47
2023-03-06T09:20:06.289Z,94843.06
2023-03-06T09:21:09.324Z,94849.44
2023-03-06T09:22:11.362Z,94845.22
2023-03-06T09:23:14.613Z,94848.06
2023-03-06T09:24:17.487Z,94843.47
2023-03-06T09:25:22.757Z,94846.34
2023-03-06T09:26:39.509Z,94843.06
2023-03-06T09:27:47.944Z,94850.47
2023-03-06T09:28:51.972Z,94848.22
2023-03-06T09:29:54.954Z,94852.88
2023-03-06T09:30:56.927Z,94842.56
2023-03-06T09:31:59.050Z,94850.53
2023-03-06T09:33:01.721Z,94847.81
2023-03-06T09:34:04.704Z,94846.16
2023-03-06T09:35:07.266Z,94841.44
2023-03-06T09:36:10.598Z,94840.56
2023-03-06T09:37:12.480Z,94849.41
2023-03-06T09:38:15.006Z,94846.66
2023-03-06T09:39:16.944Z,94849.19
2023-03-06T09:40:31.771Z,94850.16
2023-03-06T09:41:37.090Z,94847.97
2023-03-06T09:42:39.034Z,94843.00
2023-03-06T09:43:45.406Z,94849.19
2023-03-06T09:45:06.071Z,94843.25
2023-03-06T09:46:24.006Z,94845.94
2023-03-06T09:47:38.324Z,94848.47
2023-03-06T09:49:01.871Z,94851.66
2023-03-06T09:50:21.217Z,94845.09
2023-03-06T09:51:31.654Z,94844.59
2023-03-06T09:53:03.146Z,94847.78
2023-03-06T09:54:13.471Z,94845.88
2023-03-06T09:55:17.719Z,94846.81
2023-03-06T09:56:24.329Z,94851.09
2023-03-06T09:57:31.206Z,94850.59
2023-03-06T09:58:38.474Z,94841.94
2023-03-06T09:59:45.794Z,94848.59
2023-03-06T10:01:01.379Z,94846.91
2023-03-06T10:02:15.461Z,94839.56
2023-03-06T10:03:27.856Z,94844.06
2023-03-06T10:04:37.405Z,94849.31
2023-03-06T10:05:50.004Z,94852.06
2023-03-06T10:06:57.458Z,94849.38
2023-03-06T10:08:06.040Z,94842.38
2023-03-06T10:09:15.495Z,94843.47
2023-03-06T10:10:23.949Z,94843.66
2023-03-06T10:11:35.293Z,94841.16
2023-03-06T10:12:42.708Z,94842.00
2023-03-06T10:13:54.793Z,94834.81
2023-03-06T10:15:06.211Z,94844.50
2023-03-06T10:16:31.142Z,94845.69
2023-03-06T10:17:38.599Z,94841.94
2023-03-06T10:18:40.589Z,94844.00
2023-03-06T10:19:42.808Z,94847.66
2023-03-06T10:21:19.296Z,94844.97
2023-03-06T10:23:00.845Z,94831.59
2023-03-06T10:24:28.762Z,94836.41
2023-03-06T10:25:38.937Z,94833.53
2023-03-06T10:26:49.869Z,94836.25
2023-03-06T10:27:58.614Z,94842.16
2023-03-06T10:29:00.381Z,94838.59
2023-03-06T10:30:50.021Z,94835.94
2023-03-06T10:31:58.758Z,94833.91
2023-03-06T10:33:16.386Z,94836.22
2023-03-06T10:34:29.904Z,94838.50
2023-03-06T10:35:50.271Z,94835.84
2023-03-06T10:36:52.192Z,94833.59
2023-03-06T10:38:16.269Z,94839.63
2023-03-06T10:39:21.436Z,94833.84
2023-03-06T10:40:25.635Z,94834.63
2023-03-06T10:41:30.668Z,94844.28
2023-03-06T10:42:32.457Z,94836.78
2023-03-06T10:43:36.584Z,94836.78
2023-03-06T10:44:39.021Z,94829.66
2023-03-06T10:45:52.541Z,94837.84
2023-03-06T10:46:54.740Z,94832.66
2023-03-06T10:48:12.337Z,94834.78
2023-03-06T10:49:35.448Z,94830.53
2023-03-06T10:50:37.556Z,94830.72
2023-03-06T10:51:40.204Z,94829.28
2023-03-06T10:52:42.847Z,94827.03
2023-03-06T10:53:53.581Z,94829.88
2023-03-06T10:55:15.629Z,94828.31
2023-03-06T10:56:32.063Z,94831.47
2023-03-06T10:57:38.153Z,94832.13
2023-03-06T10:58:44.812Z,94828.94
2023-03-06T11:00:03.955Z,94823.28
2023-03-06T11:01:11.072Z,94816.31
2023-03-06T11:02:21.814Z,94825.63
2023-03-06T11:03:24.664Z,94829.06
2023-03-06T11:04:31.961Z,94818.28
2023-03-06T11:05:33.780Z,94828.84
2023-03-06T11:06:37.292Z,94819.59
2023-03-06T11:07:55.924Z,94829.53
2023-03-06T11:09:24.363Z,94824.56
2023-03-06T11:10:27.579Z,94820.41
2023-03-06T11:11:37.479Z,94821.22
2023-03-06T11:12:42.170Z,94821.00
2023-03-06T11:13:44.637Z,94821.44
2023-03-06T11:14:46.856Z,94824.44
2023-03-06T11:16:05.545Z,94828.38
2023-03-06T11:17:27.850Z,94823.28
2023-03-06T11:18:38.169Z,94820.94
2023-03-06T11:19:41.450Z,94822.16
2023-03-06T11:20:53.109Z,94829.53
2023-03-06T11:22:00.586Z,94828.88
2023-03-06T11:23:35.572Z,94830.44
2023-03-06T11:24:44.406Z,94829.88
2023-03-06T11:26:15.943Z,94830.84
2023-03-06T11:27:22.810Z,94828.78
2023-03-06T11:28:40.113Z,94823.53
2023-03-06T11:29:50.659Z,94824.59
2023-03-06T11:30:56.320Z,94830.91
2023-03-06T11:32:38.453Z,94824.16
2023-03-06T11:33:47.486Z,94826.16
2023-03-06T11:35:03.807Z,94817.00
2023-03-06T11:36:31.996Z,94823.44
2023-03-06T11:37:55.623Z,94817.38
2023-03-06T11:38:57.797Z,94826.16
2023-03-06T11:40:11.465Z,94827.03
2023-03-06T11:41:19.264Z,94829.25
2023-03-06T11:42:29.088Z,94828.00
2023-03-06T11:44:03.611Z,94823.69
2023-03-06T11:45:10.624Z,94823.44
2023-03-06T11:46:20.180Z,94824.69
2023-03-06T11:47:42.955Z,94822.84
2023-03-06T11:49:02.433Z,94830.16
2023-03-06T11:50:22.052Z,94813.41
2023-03-06T11:51:27.682Z,94814.84
2023-03-06T11:52:55.590Z,94815.78
2023-03-06T11:54:00.328Z,94808.22
2023-03-06T11:55:02.315Z,94803.13
2023-03-06T11:56:19.197Z,94809.38
2023-03-06T11:57:25.871Z,94814.63
2023-03-06T11:58:42.621Z,94809.41
2023-03-06T11:59:51.296Z,94803.22
2023-03-06T12:00:53.058Z,94802.50
2023-03-06T12:02:06.829Z,94807.59
2023-03-06T12:03:21.898Z,94801.75
2023-03-06T12:04:37.677Z,94801.81
2023-03-06T12:06:12.974Z,94799.66
2023-03-06T12:07:34.216Z,94794.28
2023-03-06T12:09:02.000Z,94798.09
2023-03-06T12:10:42.538Z,94788.19
2023-03-06T12:11:50.432Z,94789.47
2023-03-06T12:12:56.950Z,94796.47
2023-03-06T12:14:13.854Z,94789.09
2023-03-06T12:15:37.494Z,94792.59
2023-03-06T12:17:17.044Z,94790.63
2023-03-06T12:18:53.896Z,94790.00
2023-03-06T12:20:20.161Z,94782.59
2023-03-06T12:21:41.673Z,94786.34
2023-03-06T12:22:57.779Z,94788.84
2023-03-06T12:24:11.583Z,94791.16
2023-03-06T12:25:33.402Z,94787.66
2023-03-06T12:26:53.581Z,94782.78
2023-03-06T12:28:29.480Z,94776.81
2023-03-06T12:29:54.016Z,94778.59
2023-03-06T12:31:34.676Z,94773.91
2023-03-06T12:32:56.997Z,94775.41
2023-03-06T12:34:01.716Z,94776.72
2023-03-06T12:35:57.783Z,94771.53
2023-03-06T12:37:14.652Z,94771.50
2023-03-06T12:38:41.550Z,94769.78
2023-03-06T12:39:49.466Z,94779.22
2023-03-06T12:41:21.704Z,94771.44
2023-03-06T12:42:23.912Z,94776.59
2023-03-06T12:43:44.388Z,94769.03
2023-03-06T12:44:56.053Z,94773.91
2023-03-06T12:46:02.691Z,94765.16
2023-03-06T12:47:10.171Z,94762.63
2023-03-06T12:48:18.089Z,94763.59
2023-03-06T12:49:33.291Z,94765.50
2023-03-06T12:50:39.117Z,94766.94
2023-03-06T12:51:41.697Z,94761.47
2023-03-06T12:52:44.128Z,94763.81